Terminal Aerodrome Forecast
Issued by NWS

Home | Current Version | Previous Version | Text Only | Print | Product List | Glossary On
Versions: 1 2 3 4 5 6 7 8 9 10 11 12 13 14 15 16 17 18 19 20 21 22 23 24 25 26 27 28 29 30
000
FTUS45 KGJT 282327
TAFEGE
TAFEGE
TAF
KEGE 282327Z 2900/2924 30018G28KT P6SM VCSH BKN090
     FM290300 25005KT P6SM VCSH BKN080
     FM290600 09004KT P6SM FEW090 SCT150
     FM291200 VRB03KT P6SM SCT200
     FM291800 VRB03KT P6SM BKN200
      AMD LTD TO CLD VIS AND WIND 2902/2913=

USA.gov is the U.S. government's official web portal to all federal, state and local government web resources and services.